Погода Мабешина неделю

Вьентьян, Таиланд

24 - 30 апреля
  • 24апреля
    Сегодня
    +24°
    +39°
    Практически безоблачно
    ВремяПогодаТемператураВлажностьДавлениеВетер, м/сВероятность осадков
    01:00Практически безоблачно+27°C57 %718 мм1.6 м/с2 %
    04:00Ясно и безоблачно+26°C63 %718 мм0.6 м/с2 %
    07:00Ясно и безоблачно+26°C65 %719 мм0.1 м/с2 %
    10:00Ясно и безоблачно+32°C42 %721 мм1.5 м/с2 %
    13:00Практически безоблачно+38°C30 %719 мм3.1 м/с2 %
    16:00Небольшая облачность+39°C31 %717 мм2.3 м/с6 %
    19:00Практически безоблачно+36°C58 %719 мм1.6 м/с4 %
    22:00Ясно и безоблачно+30°C66 %720 мм2.7 м/с2 %
  • 25апреля
    Четверг
    +24°
    +38°
    Практически безоблачно
    ВремяПогодаТемператураВлажностьДавлениеВетер, м/сВероятность осадков
    01:00Ясно и безоблачно+28°C73 %720 мм1.3 м/с2 %
    04:00Ясно и безоблачно+26°C76 %719 мм0.7 м/с1 %
    07:00Ясно и безоблачно+25°C76 %720 мм0.0 м/с2 %
    10:00Ясно и безоблачно+31°C48 %721 мм1.4 м/с2 %
    13:00Практически безоблачно+37°C32 %720 мм3.2 м/с4 %
    16:00Практически безоблачно+37°C30 %717 мм1.9 м/с6 %
    19:00Ясно и безоблачно+35°C45 %718 мм1.3 м/с2 %
    22:00Ясно и безоблачно+28°C60 %718 мм2.5 м/с2 %
  • 26апреля
    Пятница
    +22°
    +39°
    Ясно и безоблачно
    ВремяПогодаТемператураВлажностьДавлениеВетер, м/сВероятность осадков
    01:00Ясно и безоблачно+26°C59 %718 мм1.5 м/с2 %
    04:00Ясно и безоблачно+25°C61 %717 мм0.8 м/с2 %
    07:00Ясно и безоблачно+25°C63 %719 мм0.1 м/с2 %
    10:00Ясно и безоблачно+32°C39 %721 мм1.4 м/с2 %
    13:00Ясно и безоблачно+38°C21 %719 мм3.2 м/с2 %
    16:00Ясно и безоблачно+39°C21 %717 мм2.1 м/с2 %
    19:00Ясно и безоблачно+35°C31 %717 мм1.4 м/с2 %
    22:00Ясно и безоблачно+29°C46 %718 мм2.7 м/с2 %
  • 27апреля
    Суббота
    +21°
    +40°
    Ясно и безоблачно
    ВремяПогодаТемператураВлажностьДавлениеВетер, м/сВероятность осадков
    01:00Ясно и безоблачно+26°C49 %717 мм1.5 м/с2 %
    04:00Ясно и безоблачно+24°C43 %717 мм0.6 м/с2 %
    07:00Ясно и безоблачно+24°C46 %719 мм0.0 м/с2 %
    10:00Ясно и безоблачно+31°C32 %721 мм1.3 м/с2 %
    13:00Ясно и безоблачно+38°C17 %719 мм3.1 м/с2 %
    16:00Ясно и безоблачно+40°C16 %716 мм2.6 м/с2 %
    19:00Ясно и безоблачно+36°C33 %717 мм1.6 м/с2 %
    22:00Ясно и безоблачно+29°C44 %718 мм2.7 м/с2 %
  • 28апреля
    Воскресенье
    +23°
    +41°
    Практически безоблачно
    ВремяПогодаТемператураВлажностьДавлениеВетер, м/сВероятность осадков
    01:00Ясно и безоблачно+26°C42 %718 мм1.3 м/с2 %
    04:00Ясно и безоблачно+23°C42 %718 мм0.7 м/с2 %
    07:00Ясно и безоблачно+22°C48 %720 мм0.0 м/с2 %
    10:00Ясно и безоблачно+31°C29 %722 мм1.4 м/с2 %
    13:00Практически безоблачно+38°C17 %719 мм3.2 м/с2 %
    16:00Практически безоблачно+40°C16 %717 мм2.8 м/с2 %
    19:00Облачно с прояснениями+37°C27 %718 мм1.6 м/с2 %
    22:00Ясно и безоблачно+30°C37 %719 мм2.9 м/с2 %
Мы используем cookies
Соглашаюсь